sensor_id;sensor_type;location;lat;lon;timestamp;P1;durP1;ratioP1;P2;durP2;ratioP2
43098;SDS011;28715;51.988;6.020;2022-11-20T00:01:12;31.80;;;16.48;;
43098;SDS011;28715;51.988;6.020;2022-11-20T00:03:39;32.88;;;17.13;;
43098;SDS011;28715;51.988;6.020;2022-11-20T00:06:09;30.38;;;15.68;;
43098;SDS011;28715;51.988;6.020;2022-11-20T00:08:40;30.40;;;15.27;;
43098;SDS011;28715;51.988;6.020;2022-11-20T00:11:07;31.30;;;15.73;;
43098;SDS011;28715;51.988;6.020;2022-11-20T00:13:37;29.58;;;15.68;;
43098;SDS011;28715;51.988;6.020;2022-11-20T00:16:03;30.05;;;15.35;;
43098;SDS011;28715;51.988;6.020;2022-11-20T00:18:30;31.55;;;16.45;;
43098;SDS011;28715;51.988;6.020;2022-11-20T00:21:01;31.17;;;15.55;;
43098;SDS011;28715;51.988;6.020;2022-11-20T00:23:30;30.92;;;15.73;;
43098;SDS011;28715;51.988;6.020;2022-11-20T00:25:56;32.75;;;16.17;;
43098;SDS011;28715;51.988;6.020;2022-11-20T00:28:25;30.00;;;16.25;;
43098;SDS011;28715;51.988;6.020;2022-11-20T00:30:51;34.03;;;16.67;;
43098;SDS011;28715;51.988;6.020;2022-11-20T00:33:16;30.60;;;16.23;;
43098;SDS011;28715;51.988;6.020;2022-11-20T00:35:42;30.23;;;16.00;;
43098;SDS011;28715;51.988;6.020;2022-11-20T00:38:07;30.30;;;16.53;;
43098;SDS011;28715;51.988;6.020;2022-11-20T00:40:33;32.37;;;15.90;;
43098;SDS011;28715;51.988;6.020;2022-11-20T00:42:58;32.13;;;15.90;;
43098;SDS011;28715;51.988;6.020;2022-11-20T00:45:24;31.73;;;16.13;;
43098;SDS011;28715;51.988;6.020;2022-11-20T00:47:49;32.30;;;15.80;;
43098;SDS011;28715;51.988;6.020;2022-11-20T00:50:15;31.43;;;17.20;;
43098;SDS011;28715;51.988;6.020;2022-11-20T00:52:40;30.97;;;16.27;;
43098;SDS011;28715;51.988;6.020;2022-11-20T00:55:06;35.17;;;17.07;;
43098;SDS011;28715;51.988;6.020;2022-11-20T00:57:31;33.77;;;16.97;;
43098;SDS011;28715;51.988;6.020;2022-11-20T00:59:57;33.43;;;16.50;;
43098;SDS011;28715;51.988;6.020;2022-11-20T01:02:22;34.30;;;17.07;;
43098;SDS011;28715;51.988;6.020;2022-11-20T01:04:48;29.73;;;15.80;;
43098;SDS011;28715;51.988;6.020;2022-11-20T01:07:14;30.23;;;15.87;;
43098;SDS011;28715;51.988;6.020;2022-11-20T01:09:39;32.93;;;15.37;;
43098;SDS011;28715;51.988;6.020;2022-11-20T01:12:05;27.83;;;15.33;;
43098;SDS011;28715;51.988;6.020;2022-11-20T01:14:30;31.33;;;15.07;;
43098;SDS011;28715;51.988;6.020;2022-11-20T01:16:56;32.23;;;15.57;;
43098;SDS011;28715;51.988;6.020;2022-11-20T01:19:22;27.23;;;13.87;;
43098;SDS011;28715;51.988;6.020;2022-11-20T01:21:49;27.83;;;15.00;;
43098;SDS011;28715;51.988;6.020;2022-11-20T01:24:17;31.05;;;15.45;;
43098;SDS011;28715;51.988;6.020;2022-11-20T01:26:44;32.28;;;15.57;;
43098;SDS011;28715;51.988;6.020;2022-11-20T01:29:22;32.60;;;15.73;;
43098;SDS011;28715;51.988;6.020;2022-11-20T01:31:49;30.58;;;15.50;;
43098;SDS011;28715;51.988;6.020;2022-11-20T01:34:18;33.88;;;16.60;;
43098;SDS011;28715;51.988;6.020;2022-11-20T01:36:45;30.55;;;14.70;;
43098;SDS011;28715;51.988;6.020;2022-11-20T01:39:21;32.83;;;16.35;;
43098;SDS011;28715;51.988;6.020;2022-11-20T01:41:50;29.08;;;14.88;;
43098;SDS011;28715;51.988;6.020;2022-11-20T01:50:13;28.75;;;13.75;;
43098;SDS011;28715;51.988;6.020;2022-11-20T01:52:51;29.20;;;14.57;;
43098;SDS011;28715;51.988;6.020;2022-11-20T01:55:24;32.45;;;15.13;;
43098;SDS011;28715;51.988;6.020;2022-11-20T01:57:54;31.15;;;15.63;;
43098;SDS011;28715;51.988;6.020;2022-11-20T02:00:20;29.95;;;14.45;;
43098;SDS011;28715;51.988;6.020;2022-11-20T02:02:48;30.05;;;14.48;;
43098;SDS011;28715;51.988;6.020;2022-11-20T02:05:35;33.25;;;15.15;;
43098;SDS011;28715;51.988;6.020;2022-11-20T02:08:05;32.47;;;14.90;;
43098;SDS011;28715;51.988;6.020;2022-11-20T02:10:32;30.58;;;15.00;;
43098;SDS011;28715;51.988;6.020;2022-11-20T02:12:58;32.97;;;15.55;;
43098;SDS011;28715;51.988;6.020;2022-11-20T02:15:43;30.65;;;14.52;;
43098;SDS011;28715;51.988;6.020;2022-11-20T02:18:10;31.90;;;15.10;;
43098;SDS011;28715;51.988;6.020;2022-11-20T02:20:38;34.03;;;15.82;;
43098;SDS011;28715;51.988;6.020;2022-11-20T02:23:29;30.88;;;16.00;;
43098;SDS011;28715;51.988;6.020;2022-11-20T02:26:03;33.83;;;16.23;;
43098;SDS011;28715;51.988;6.020;2022-11-20T02:28:31;34.72;;;16.55;;
43098;SDS011;28715;51.988;6.020;2022-11-20T02:30:57;32.17;;;16.03;;
43098;SDS011;28715;51.988;6.020;2022-11-20T02:33:23;31.10;;;15.33;;
43098;SDS011;28715;51.988;6.020;2022-11-20T02:35:48;30.67;;;16.00;;
43098;SDS011;28715;51.988;6.020;2022-11-20T02:38:14;31.80;;;16.00;;
43098;SDS011;28715;51.988;6.020;2022-11-20T02:40:40;32.23;;;15.93;;
43098;SDS011;28715;51.988;6.020;2022-11-20T02:43:06;34.70;;;16.30;;
43098;SDS011;28715;51.988;6.020;2022-11-20T02:45:33;33.75;;;17.15;;
43098;SDS011;28715;51.988;6.020;2022-11-20T02:47:58;34.47;;;17.15;;
43098;SDS011;28715;51.988;6.020;2022-11-20T02:50:24;32.47;;;15.73;;
43098;SDS011;28715;51.988;6.020;2022-11-20T02:52:50;33.13;;;17.08;;
43098;SDS011;28715;51.988;6.020;2022-11-20T02:55:15;33.33;;;16.47;;
43098;SDS011;28715;51.988;6.020;2022-11-20T02:57:41;31.03;;;16.00;;
43098;SDS011;28715;51.988;6.020;2022-11-20T03:00:07;32.83;;;16.10;;
43098;SDS011;28715;51.988;6.020;2022-11-20T03:02:33;33.70;;;16.27;;
43098;SDS011;28715;51.988;6.020;2022-11-20T03:04:59;32.70;;;16.33;;
43098;SDS011;28715;51.988;6.020;2022-11-20T03:07:24;32.80;;;16.27;;
43098;SDS011;28715;51.988;6.020;2022-11-20T03:09:50;31.07;;;15.77;;
43098;SDS011;28715;51.988;6.020;2022-11-20T03:12:15;36.20;;;17.40;;
43098;SDS011;28715;51.988;6.020;2022-11-20T03:14:41;35.30;;;17.25;;
43098;SDS011;28715;51.988;6.020;2022-11-20T03:17:07;32.80;;;16.33;;
43098;SDS011;28715;51.988;6.020;2022-11-20T03:19:32;34.40;;;16.60;;
43098;SDS011;28715;51.988;6.020;2022-11-20T03:21:59;33.08;;;16.48;;
43098;SDS011;28715;51.988;6.020;2022-11-20T03:24:25;33.75;;;16.05;;
43098;SDS011;28715;51.988;6.020;2022-11-20T03:26:50;32.50;;;16.37;;
43098;SDS011;28715;51.988;6.020;2022-11-20T03:29:16;35.83;;;17.00;;
43098;SDS011;28715;51.988;6.020;2022-11-20T03:31:41;36.30;;;16.63;;
43098;SDS011;28715;51.988;6.020;2022-11-20T03:34:08;35.30;;;16.33;;
43098;SDS011;28715;51.988;6.020;2022-11-20T03:36:37;37.38;;;18.65;;
43098;SDS011;28715;51.988;6.020;2022-11-20T03:39:04;39.17;;;17.98;;
43098;SDS011;28715;51.988;6.020;2022-11-20T03:41:30;39.40;;;18.30;;
43098;SDS011;28715;51.988;6.020;2022-11-20T03:44:00;39.67;;;18.38;;
43098;SDS011;28715;51.988;6.020;2022-11-20T03:46:27;43.00;;;18.05;;
43098;SDS011;28715;51.988;6.020;2022-11-20T03:48:53;38.90;;;17.55;;
43098;SDS011;28715;51.988;6.020;2022-11-20T03:51:20;39.57;;;17.97;;
43098;SDS011;28715;51.988;6.020;2022-11-20T03:53:51;38.25;;;17.75;;
43098;SDS011;28715;51.988;6.020;2022-11-20T03:56:19;35.88;;;17.30;;
43098;SDS011;28715;51.988;6.020;2022-11-20T03:58:47;34.00;;;16.83;;
43098;SDS011;28715;51.988;6.020;2022-11-20T04:01:17;37.13;;;17.43;;
43098;SDS011;28715;51.988;6.020;2022-11-20T04:03:47;38.42;;;18.30;;
43098;SDS011;28715;51.988;6.020;2022-11-20T04:06:15;38.28;;;18.27;;
43098;SDS011;28715;51.988;6.020;2022-11-20T04:08:42;40.83;;;17.95;;
43098;SDS011;28715;51.988;6.020;2022-11-20T04:11:12;38.87;;;17.93;;
43098;SDS011;28715;51.988;6.020;2022-11-20T04:13:46;39.88;;;18.60;;
43098;SDS011;28715;51.988;6.020;2022-11-20T04:16:16;37.35;;;18.05;;
43098;SDS011;28715;51.988;6.020;2022-11-20T04:18:43;39.40;;;17.65;;
43098;SDS011;28715;51.988;6.020;2022-11-20T04:21:09;38.10;;;18.05;;
43098;SDS011;28715;51.988;6.020;2022-11-20T04:23:35;36.58;;;16.92;;
43098;SDS011;28715;51.988;6.020;2022-11-20T04:26:04;36.88;;;18.17;;
43098;SDS011;28715;51.988;6.020;2022-11-20T04:28:32;37.38;;;17.63;;
43098;SDS011;28715;51.988;6.020;2022-11-20T04:31:01;35.37;;;17.67;;
43098;SDS011;28715;51.988;6.020;2022-11-20T04:33:35;36.63;;;17.20;;
43098;SDS011;28715;51.988;6.020;2022-11-20T04:36:05;38.65;;;17.92;;
43098;SDS011;28715;51.988;6.020;2022-11-20T04:38:32;39.47;;;18.75;;
43098;SDS011;28715;51.988;6.020;2022-11-20T04:41:02;38.97;;;18.70;;
43098;SDS011;28715;51.988;6.020;2022-11-20T04:43:29;36.30;;;18.55;;
43098;SDS011;28715;51.988;6.020;2022-11-20T04:45:55;39.30;;;18.73;;
43098;SDS011;28715;51.988;6.020;2022-11-20T04:48:22;40.70;;;18.38;;
43098;SDS011;28715;51.988;6.020;2022-11-20T04:50:48;37.28;;;17.45;;
43098;SDS011;28715;51.988;6.020;2022-11-20T04:53:14;42.37;;;19.63;;
43098;SDS011;28715;51.988;6.020;2022-11-20T04:55:39;39.67;;;18.47;;
43098;SDS011;28715;51.988;6.020;2022-11-20T04:58:05;39.10;;;19.50;;
43098;SDS011;28715;51.988;6.020;2022-11-20T05:00:31;41.47;;;19.55;;
43098;SDS011;28715;51.988;6.020;2022-11-20T05:02:56;42.47;;;20.13;;
43098;SDS011;28715;51.988;6.020;2022-11-20T05:05:22;41.50;;;19.23;;
43098;SDS011;28715;51.988;6.020;2022-11-20T05:07:47;38.27;;;18.23;;
43098;SDS011;28715;51.988;6.020;2022-11-20T05:10:13;42.77;;;19.63;;
43098;SDS011;28715;51.988;6.020;2022-11-20T05:12:39;46.77;;;21.13;;
43098;SDS011;28715;51.988;6.020;2022-11-20T05:15:05;43.57;;;19.53;;
43098;SDS011;28715;51.988;6.020;2022-11-20T05:17:30;45.70;;;20.43;;
43098;SDS011;28715;51.988;6.020;2022-11-20T05:19:56;40.40;;;18.73;;
43098;SDS011;28715;51.988;6.020;2022-11-20T05:22:21;44.43;;;20.33;;
43098;SDS011;28715;51.988;6.020;2022-11-20T05:24:47;41.93;;;18.60;;
43098;SDS011;28715;51.988;6.020;2022-11-20T05:27:12;42.83;;;19.53;;
43098;SDS011;28715;51.988;6.020;2022-11-20T05:29:38;43.30;;;18.90;;
43098;SDS011;28715;51.988;6.020;2022-11-20T05:32:03;41.50;;;19.63;;
43098;SDS011;28715;51.988;6.020;2022-11-20T05:34:31;41.88;;;19.92;;
43098;SDS011;28715;51.988;6.020;2022-11-20T05:36:56;40.92;;;19.63;;
43098;SDS011;28715;51.988;6.020;2022-11-20T05:39:22;45.13;;;21.27;;
43098;SDS011;28715;51.988;6.020;2022-11-20T05:41:47;45.10;;;20.37;;
43098;SDS011;28715;51.988;6.020;2022-11-20T05:44:33;48.50;;;21.75;;
43098;SDS011;28715;51.988;6.020;2022-11-20T05:46:58;43.73;;;21.33;;
43098;SDS011;28715;51.988;6.020;2022-11-20T05:49:24;47.77;;;21.60;;
43098;SDS011;28715;51.988;6.020;2022-11-20T05:51:49;48.63;;;22.27;;
43098;SDS011;28715;51.988;6.020;2022-11-20T05:54:15;47.00;;;21.70;;
43098;SDS011;28715;51.988;6.020;2022-11-20T05:56:40;44.60;;;21.57;;
43098;SDS011;28715;51.988;6.020;2022-11-20T05:59:06;44.50;;;21.30;;
43098;SDS011;28715;51.988;6.020;2022-11-20T06:01:32;48.47;;;21.10;;
43098;SDS011;28715;51.988;6.020;2022-11-20T06:03:58;44.20;;;20.40;;
43098;SDS011;28715;51.988;6.020;2022-11-20T06:06:23;41.23;;;19.33;;
43098;SDS011;28715;51.988;6.020;2022-11-20T06:08:50;46.25;;;21.15;;
43098;SDS011;28715;51.988;6.020;2022-11-20T06:11:16;47.83;;;22.13;;
43098;SDS011;28715;51.988;6.020;2022-11-20T06:13:42;48.80;;;22.50;;
43098;SDS011;28715;51.988;6.020;2022-11-20T06:16:10;46.40;;;22.00;;
43098;SDS011;28715;51.988;6.020;2022-11-20T06:18:36;45.38;;;20.92;;
43098;SDS011;28715;51.988;6.020;2022-11-20T06:26:00;45.30;;;20.88;;
43098;SDS011;28715;51.988;6.020;2022-11-20T06:28:30;43.53;;;21.10;;
43098;SDS011;28715;51.988;6.020;2022-11-20T06:30:55;46.10;;;21.73;;
43098;SDS011;28715;51.988;6.020;2022-11-20T06:33:21;47.33;;;22.17;;
43098;SDS011;28715;51.988;6.020;2022-11-20T06:35:47;49.07;;;23.30;;
43098;SDS011;28715;51.988;6.020;2022-11-20T06:38:12;45.23;;;21.87;;
43098;SDS011;28715;51.988;6.020;2022-11-20T06:40:41;45.70;;;22.43;;
43098;SDS011;28715;51.988;6.020;2022-11-20T06:43:11;44.47;;;21.25;;
43098;SDS011;28715;51.988;6.020;2022-11-20T06:45:36;41.38;;;20.88;;
43098;SDS011;28715;51.988;6.020;2022-11-20T06:48:02;48.30;;;20.97;;
43098;SDS011;28715;51.988;6.020;2022-11-20T06:50:28;43.70;;;20.83;;
43098;SDS011;28715;51.988;6.020;2022-11-20T06:52:54;44.00;;;20.80;;
43098;SDS011;28715;51.988;6.020;2022-11-20T06:55:19;50.70;;;22.43;;
43098;SDS011;28715;51.988;6.020;2022-11-20T06:57:45;44.40;;;21.40;;
43098;SDS011;28715;51.988;6.020;2022-11-20T07:00:10;49.93;;;23.17;;
43098;SDS011;28715;51.988;6.020;2022-11-20T07:02:36;51.17;;;23.38;;
43098;SDS011;28715;51.988;6.020;2022-11-20T07:05:02;52.47;;;23.67;;
43098;SDS011;28715;51.988;6.020;2022-11-20T07:07:28;50.27;;;24.17;;
43098;SDS011;28715;51.988;6.020;2022-11-20T07:09:53;49.33;;;24.90;;
43098;SDS011;28715;51.988;6.020;2022-11-20T07:12:19;48.97;;;24.43;;
43098;SDS011;28715;51.988;6.020;2022-11-20T07:14:45;53.33;;;26.02;;
43098;SDS011;28715;51.988;6.020;2022-11-20T07:17:11;54.73;;;27.27;;
43098;SDS011;28715;51.988;6.020;2022-11-20T07:19:37;52.92;;;25.77;;
43098;SDS011;28715;51.988;6.020;2022-11-20T07:22:02;65.23;;;29.13;;
43098;SDS011;28715;51.988;6.020;2022-11-20T07:24:28;204.37;;;39.63;;
43098;SDS011;28715;51.988;6.020;2022-11-20T07:26:53;179.30;;;34.80;;
43098;SDS011;28715;51.988;6.020;2022-11-20T07:29:19;321.03;;;42.90;;
43098;SDS011;28715;51.988;6.020;2022-11-20T07:31:44;147.83;;;34.80;;
43098;SDS011;28715;51.988;6.020;2022-11-20T07:34:10;117.20;;;33.10;;
43098;SDS011;28715;51.988;6.020;2022-11-20T07:36:35;144.40;;;36.77;;
43098;SDS011;28715;51.988;6.020;2022-11-20T07:39:01;170.00;;;36.63;;
43098;SDS011;28715;51.988;6.020;2022-11-20T07:41:26;100.70;;;31.03;;
43098;SDS011;28715;51.988;6.020;2022-11-20T07:43:52;222.93;;;42.50;;
43098;SDS011;28715;51.988;6.020;2022-11-20T07:46:18;150.57;;;44.40;;
43098;SDS011;28715;51.988;6.020;2022-11-20T07:48:43;145.87;;;38.60;;
43098;SDS011;28715;51.988;6.020;2022-11-20T07:51:09;76.83;;;31.43;;
43098;SDS011;28715;51.988;6.020;2022-11-20T07:53:34;137.60;;;38.53;;
43098;SDS011;28715;51.988;6.020;2022-11-20T07:56:00;88.53;;;32.47;;
43098;SDS011;28715;51.988;6.020;2022-11-20T07:58:28;93.45;;;32.15;;
43098;SDS011;28715;51.988;6.020;2022-11-20T08:00:55;80.00;;;29.15;;
43098;SDS011;28715;51.988;6.020;2022-11-20T08:03:21;89.88;;;30.52;;
43098;SDS011;28715;51.988;6.020;2022-11-20T08:05:46;69.50;;;27.43;;
43098;SDS011;28715;51.988;6.020;2022-11-20T08:08:12;61.97;;;26.73;;
43098;SDS011;28715;51.988;6.020;2022-11-20T08:10:37;54.40;;;24.53;;
43098;SDS011;28715;51.988;6.020;2022-11-20T08:13:03;50.53;;;24.40;;
43098;SDS011;28715;51.988;6.020;2022-11-20T08:15:48;41.17;;;22.60;;
43098;SDS011;28715;51.988;6.020;2022-11-20T08:18:17;39.20;;;22.13;;
43098;SDS011;28715;51.988;6.020;2022-11-20T08:20:43;40.20;;;22.50;;
43098;SDS011;28715;51.988;6.020;2022-11-20T08:23:09;38.93;;;22.10;;
43098;SDS011;28715;51.988;6.020;2022-11-20T08:25:35;37.77;;;21.03;;
43098;SDS011;28715;51.988;6.020;2022-11-20T08:28:03;41.53;;;21.92;;
43098;SDS011;28715;51.988;6.020;2022-11-20T08:30:29;41.13;;;22.13;;
43098;SDS011;28715;51.988;6.020;2022-11-20T08:32:59;40.83;;;21.27;;
43098;SDS011;28715;51.988;6.020;2022-11-20T08:35:26;40.47;;;22.50;;
43098;SDS011;28715;51.988;6.020;2022-11-20T08:37:52;38.03;;;21.10;;
43098;SDS011;28715;51.988;6.020;2022-11-20T08:40:17;42.20;;;24.23;;
43098;SDS011;28715;51.988;6.020;2022-11-20T08:42:47;40.30;;;22.43;;
43098;SDS011;28715;51.988;6.020;2022-11-20T08:45:13;41.55;;;22.13;;
43098;SDS011;28715;51.988;6.020;2022-11-20T08:47:39;39.40;;;21.87;;
43098;SDS011;28715;51.988;6.020;2022-11-20T08:50:06;44.25;;;23.60;;
43098;SDS011;28715;51.988;6.020;2022-11-20T08:52:31;42.30;;;22.38;;
43098;SDS011;28715;51.988;6.020;2022-11-20T08:54:57;40.17;;;21.83;;
43098;SDS011;28715;51.988;6.020;2022-11-20T08:57:22;37.20;;;20.23;;
43098;SDS011;28715;51.988;6.020;2022-11-20T08:59:48;40.17;;;21.33;;
43098;SDS011;28715;51.988;6.020;2022-11-20T09:02:14;35.97;;;19.80;;
43098;SDS011;28715;51.988;6.020;2022-11-20T09:04:40;37.90;;;20.90;;
43098;SDS011;28715;51.988;6.020;2022-11-20T09:07:05;46.57;;;24.20;;
43098;SDS011;28715;51.988;6.020;2022-11-20T09:09:31;40.43;;;23.17;;
43098;SDS011;28715;51.988;6.020;2022-11-20T09:11:57;45.15;;;24.45;;
43098;SDS011;28715;51.988;6.020;2022-11-20T09:14:23;46.93;;;26.50;;
43098;SDS011;28715;51.988;6.020;2022-11-20T09:16:53;42.88;;;24.73;;
43098;SDS011;28715;51.988;6.020;2022-11-20T09:19:19;41.35;;;24.30;;
43098;SDS011;28715;51.988;6.020;2022-11-20T09:21:45;44.63;;;27.80;;
43098;SDS011;28715;51.988;6.020;2022-11-20T09:24:10;35.30;;;22.03;;
43098;SDS011;28715;51.988;6.020;2022-11-20T09:26:36;34.20;;;20.60;;
43098;SDS011;28715;51.988;6.020;2022-11-20T09:29:01;34.23;;;21.97;;
43098;SDS011;28715;51.988;6.020;2022-11-20T09:31:27;38.10;;;23.83;;
43098;SDS011;28715;51.988;6.020;2022-11-20T09:33:53;36.80;;;23.23;;
43098;SDS011;28715;51.988;6.020;2022-11-20T09:36:18;39.67;;;23.67;;
43098;SDS011;28715;51.988;6.020;2022-11-20T09:38:45;42.97;;;26.90;;
43098;SDS011;28715;51.988;6.020;2022-11-20T09:41:19;40.63;;;23.75;;
43098;SDS011;28715;51.988;6.020;2022-11-20T09:44:01;38.50;;;23.52;;
43098;SDS011;28715;51.988;6.020;2022-11-20T09:46:53;44.25;;;24.77;;
43098;SDS011;28715;51.988;6.020;2022-11-20T09:55:01;44.45;;;25.20;;
43098;SDS011;28715;51.988;6.020;2022-11-20T09:57:36;46.85;;;25.98;;
43098;SDS011;28715;51.988;6.020;2022-11-20T10:00:05;39.38;;;23.33;;
43098;SDS011;28715;51.988;6.020;2022-11-20T10:02:43;44.38;;;26.20;;
43098;SDS011;28715;51.988;6.020;2022-11-20T10:05:41;46.00;;;25.13;;
43098;SDS011;28715;51.988;6.020;2022-11-20T10:13:32;46.17;;;26.33;;
43098;SDS011;28715;51.988;6.020;2022-11-20T10:18:55;43.07;;;26.37;;
43098;SDS011;28715;51.988;6.020;2022-11-20T10:29:41;43.08;;;26.35;;
43098;SDS011;28715;51.988;6.020;2022-11-20T10:32:14;46.60;;;25.83;;
43098;SDS011;28715;51.988;6.020;2022-11-20T10:34:50;41.78;;;24.60;;
43098;SDS011;28715;51.988;6.020;2022-11-20T10:37:23;45.40;;;26.50;;
43098;SDS011;28715;51.988;6.020;2022-11-20T10:39:53;43.78;;;24.85;;
43098;SDS011;28715;51.988;6.020;2022-11-20T10:42:47;41.20;;;24.65;;
43098;SDS011;28715;51.988;6.020;2022-11-20T10:47:54;40.92;;;24.25;;
43098;SDS011;28715;51.988;6.020;2022-11-20T10:50:32;42.00;;;24.55;;
43098;SDS011;28715;51.988;6.020;2022-11-20T10:55:45;44.83;;;25.37;;
43098;SDS011;28715;51.988;6.020;2022-11-20T10:58:17;42.70;;;25.15;;
43098;SDS011;28715;51.988;6.020;2022-11-20T11:00:44;45.70;;;27.05;;
43098;SDS011;28715;51.988;6.020;2022-11-20T11:03:17;45.93;;;26.80;;
43098;SDS011;28715;51.988;6.020;2022-11-20T11:05:50;45.00;;;26.73;;
43098;SDS011;28715;51.988;6.020;2022-11-20T11:08:20;47.67;;;28.90;;
43098;SDS011;28715;51.988;6.020;2022-11-20T11:10:50;45.47;;;27.95;;
43098;SDS011;28715;51.988;6.020;2022-11-20T11:13:26;49.30;;;30.05;;
43098;SDS011;28715;51.988;6.020;2022-11-20T11:15:54;51.95;;;29.95;;
43098;SDS011;28715;51.988;6.020;2022-11-20T11:18:30;51.72;;;31.63;;
43098;SDS011;28715;51.988;6.020;2022-11-20T11:20:59;54.00;;;32.50;;
43098;SDS011;28715;51.988;6.020;2022-11-20T11:23:31;49.13;;;30.35;;
43098;SDS011;28715;51.988;6.020;2022-11-20T11:26:05;48.42;;;29.27;;
43098;SDS011;28715;51.988;6.020;2022-11-20T11:28:32;51.83;;;31.20;;
43098;SDS011;28715;51.988;6.020;2022-11-20T11:30:58;54.00;;;31.48;;
43098;SDS011;28715;51.988;6.020;2022-11-20T11:33:25;51.90;;;30.40;;
43098;SDS011;28715;51.988;6.020;2022-11-20T11:35:53;54.72;;;33.25;;
43098;SDS011;28715;51.988;6.020;2022-11-20T11:38:39;50.58;;;29.73;;
43098;SDS011;28715;51.988;6.020;2022-11-20T11:41:09;47.80;;;29.20;;
43098;SDS011;28715;51.988;6.020;2022-11-20T11:43:49;47.65;;;29.02;;
43098;SDS011;28715;51.988;6.020;2022-11-20T11:46:40;48.55;;;29.17;;
43098;SDS011;28715;51.988;6.020;2022-11-20T11:49:17;46.08;;;27.77;;
43098;SDS011;28715;51.988;6.020;2022-11-20T11:52:01;45.63;;;27.40;;
43098;SDS011;28715;51.988;6.020;2022-11-20T12:00:12;47.70;;;28.55;;
43098;SDS011;28715;51.988;6.020;2022-11-20T12:05:30;44.45;;;25.90;;
43098;SDS011;28715;51.988;6.020;2022-11-20T12:08:03;43.83;;;27.08;;
43098;SDS011;28715;51.988;6.020;2022-11-20T12:11:06;46.95;;;29.10;;
43098;SDS011;28715;51.988;6.020;2022-11-20T12:13:48;45.90;;;29.48;;
43098;SDS011;28715;51.988;6.020;2022-11-20T12:16:23;50.30;;;31.23;;
43098;SDS011;28715;51.988;6.020;2022-11-20T12:18:50;51.30;;;29.65;;
43098;SDS011;28715;51.988;6.020;2022-11-20T12:35:01;52.80;;;30.00;;
43098;SDS011;28715;51.988;6.020;2022-11-20T12:38:02;48.75;;;26.75;;
43098;SDS011;28715;51.988;6.020;2022-11-20T12:44:24;51.13;;;29.95;;
43098;SDS011;28715;51.988;6.020;2022-11-20T12:47:07;48.85;;;27.52;;
43098;SDS011;28715;51.988;6.020;2022-11-20T12:52:17;45.83;;;27.80;;
43098;SDS011;28715;51.988;6.020;2022-11-20T12:57:39;44.43;;;27.13;;
43098;SDS011;28715;51.988;6.020;2022-11-20T13:02:52;60.90;;;38.00;;
43098;SDS011;28715;51.988;6.020;2022-11-20T13:08:22;47.63;;;28.35;;
43098;SDS011;28715;51.988;6.020;2022-11-20T13:18:54;52.75;;;28.98;;
43098;SDS011;28715;51.988;6.020;2022-11-20T13:21:20;51.17;;;30.23;;
43098;SDS011;28715;51.988;6.020;2022-11-20T13:27:01;56.72;;;32.08;;
43098;SDS011;28715;51.988;6.020;2022-11-20T13:29:26;58.75;;;33.45;;
43098;SDS011;28715;51.988;6.020;2022-11-20T13:32:00;56.47;;;31.53;;
43098;SDS011;28715;51.988;6.020;2022-11-20T13:34:32;58.20;;;31.67;;
43098;SDS011;28715;51.988;6.020;2022-11-20T13:36:59;68.47;;;36.13;;
43098;SDS011;28715;51.988;6.020;2022-11-20T13:39:29;58.20;;;33.80;;
43098;SDS011;28715;51.988;6.020;2022-11-20T13:41:57;58.90;;;34.35;;
43098;SDS011;28715;51.988;6.020;2022-11-20T13:45:00;65.38;;;36.83;;
43098;SDS011;28715;51.988;6.020;2022-11-20T13:47:27;75.47;;;38.63;;
43098;SDS011;28715;51.988;6.020;2022-11-20T13:49:54;72.68;;;39.35;;
43098;SDS011;28715;51.988;6.020;2022-11-20T13:55:31;74.47;;;39.42;;
43098;SDS011;28715;51.988;6.020;2022-11-20T14:01:28;68.07;;;37.15;;
43098;SDS011;28715;51.988;6.020;2022-11-20T14:03:56;63.22;;;35.17;;
43098;SDS011;28715;51.988;6.020;2022-11-20T14:06:32;62.63;;;34.08;;
43098;SDS011;28715;51.988;6.020;2022-11-20T14:09:03;70.03;;;39.40;;
43098;SDS011;28715;51.988;6.020;2022-11-20T14:11:29;78.33;;;42.07;;
43098;SDS011;28715;51.988;6.020;2022-11-20T14:16:31;65.88;;;37.47;;
43098;SDS011;28715;51.988;6.020;2022-11-20T14:19:17;71.50;;;39.80;;
43098;SDS011;28715;51.988;6.020;2022-11-20T14:21:44;68.78;;;38.47;;
43098;SDS011;28715;51.988;6.020;2022-11-20T14:24:18;71.03;;;38.80;;
43098;SDS011;28715;51.988;6.020;2022-11-20T14:26:46;63.55;;;36.22;;
43098;SDS011;28715;51.988;6.020;2022-11-20T14:29:19;62.75;;;35.80;;
43098;SDS011;28715;51.988;6.020;2022-11-20T14:31:52;71.88;;;39.97;;
43098;SDS011;28715;51.988;6.020;2022-11-20T14:34:25;68.57;;;39.20;;
43098;SDS011;28715;51.988;6.020;2022-11-20T14:37:02;71.03;;;41.33;;
43098;SDS011;28715;51.988;6.020;2022-11-20T14:39:52;69.50;;;38.33;;
43098;SDS011;28715;51.988;6.020;2022-11-20T14:42:18;64.78;;;35.33;;
43098;SDS011;28715;51.988;6.020;2022-11-20T14:44:47;65.10;;;37.03;;
43098;SDS011;28715;51.988;6.020;2022-11-20T14:47:15;68.10;;;38.45;;
43098;SDS011;28715;51.988;6.020;2022-11-20T14:49:46;79.72;;;44.10;;
43098;SDS011;28715;51.988;6.020;2022-11-20T14:52:15;77.35;;;42.97;;
43098;SDS011;28715;51.988;6.020;2022-11-20T14:54:46;86.00;;;45.28;;
43098;SDS011;28715;51.988;6.020;2022-11-20T14:57:26;71.25;;;38.92;;
43098;SDS011;28715;51.988;6.020;2022-11-20T15:00:06;77.90;;;41.58;;
43098;SDS011;28715;51.988;6.020;2022-11-20T15:02:38;67.05;;;38.42;;
43098;SDS011;28715;51.988;6.020;2022-11-20T15:05:06;70.07;;;38.05;;
43098;SDS011;28715;51.988;6.020;2022-11-20T15:07:36;95.03;;;52.40;;
43098;SDS011;28715;51.988;6.020;2022-11-20T15:12:45;99.25;;;53.80;;
43098;SDS011;28715;51.988;6.020;2022-11-20T15:15:15;88.63;;;47.35;;
43098;SDS011;28715;51.988;6.020;2022-11-20T15:17:45;81.03;;;42.08;;
43098;SDS011;28715;51.988;6.020;2022-11-20T15:20:13;74.70;;;40.47;;
43098;SDS011;28715;51.988;6.020;2022-11-20T15:22:40;88.07;;;47.08;;
43098;SDS011;28715;51.988;6.020;2022-11-20T15:25:15;83.30;;;44.03;;
43098;SDS011;28715;51.988;6.020;2022-11-20T15:27:42;73.18;;;37.67;;
43098;SDS011;28715;51.988;6.020;2022-11-20T15:30:16;81.03;;;44.05;;
43098;SDS011;28715;51.988;6.020;2022-11-20T15:32:44;73.45;;;40.92;;
43098;SDS011;28715;51.988;6.020;2022-11-20T15:35:11;85.03;;;44.58;;
43098;SDS011;28715;51.988;6.020;2022-11-20T15:37:37;72.37;;;39.33;;
43098;SDS011;28715;51.988;6.020;2022-11-20T15:40:03;80.30;;;45.17;;
43098;SDS011;28715;51.988;6.020;2022-11-20T15:42:29;81.22;;;43.83;;
43098;SDS011;28715;51.988;6.020;2022-11-20T15:44:55;72.10;;;37.87;;
43098;SDS011;28715;51.988;6.020;2022-11-20T15:47:21;78.27;;;41.63;;
43098;SDS011;28715;51.988;6.020;2022-11-20T15:49:51;78.25;;;41.78;;
43098;SDS011;28715;51.988;6.020;2022-11-20T15:52:17;78.63;;;44.47;;
43098;SDS011;28715;51.988;6.020;2022-11-20T15:54:42;84.53;;;43.43;;
43098;SDS011;28715;51.988;6.020;2022-11-20T15:57:08;81.67;;;41.20;;
43098;SDS011;28715;51.988;6.020;2022-11-20T15:59:34;95.47;;;47.13;;
43098;SDS011;28715;51.988;6.020;2022-11-20T16:02:01;95.65;;;48.63;;
43098;SDS011;28715;51.988;6.020;2022-11-20T16:04:27;93.23;;;48.00;;
43098;SDS011;28715;51.988;6.020;2022-11-20T16:06:53;100.10;;;46.80;;
43098;SDS011;28715;51.988;6.020;2022-11-20T16:09:18;107.90;;;50.70;;